sensor_id;sensor_type;location;lat;lon;timestamp;temperature;humidity
13164;DHT22;6647;53.688;10.746;2022-09-09T00:00:18;15.40;1.00
13164;DHT22;6647;53.688;10.746;2022-09-09T00:01:59;15.40;1.00
13164;DHT22;6647;53.688;10.746;2022-09-09T00:03:33;15.40;1.00
13164;DHT22;6647;53.688;10.746;2022-09-09T00:06:31;15.40;1.00
13164;DHT22;6647;53.688;10.746;2022-09-09T00:07:55;15.40;1.00
13164;DHT22;6647;53.688;10.746;2022-09-09T00:09:22;15.40;1.00
13164;DHT22;6647;53.688;10.746;2022-09-09T00:10:54;15.40;1.00
13164;DHT22;6647;53.688;10.746;2022-09-09T00:12:33;15.40;1.00
13164;DHT22;6647;53.688;10.746;2022-09-09T00:13:57;15.40;1.00
13164;DHT22;6647;53.688;10.746;2022-09-09T00:15:21;15.40;1.00
13164;DHT22;6647;53.688;10.746;2022-09-09T00:16:49;15.40;1.00
13164;DHT22;6647;53.688;10.746;2022-09-09T00:18:28;15.40;1.00
13164;DHT22;6647;53.688;10.746;2022-09-09T00:20:00;15.40;1.00
13164;DHT22;6647;53.688;10.746;2022-09-09T00:21:39;15.40;1.00
13164;DHT22;6647;53.688;10.746;2022-09-09T00:23:14;15.40;1.00
13164;DHT22;6647;53.688;10.746;2022-09-09T00:24:44;15.40;1.00
13164;DHT22;6647;53.688;10.746;2022-09-09T00:26:22;15.40;1.00
13164;DHT22;6647;53.688;10.746;2022-09-09T00:27:50;15.40;1.00
13164;DHT22;6647;53.688;10.746;2022-09-09T00:31:13;15.40;1.00
13164;DHT22;6647;53.688;10.746;2022-09-09T00:32:34;15.40;1.00
13164;DHT22;6647;53.688;10.746;2022-09-09T00:34:03;15.40;1.00
13164;DHT22;6647;53.688;10.746;2022-09-09T00:36:53;15.40;1.00
13164;DHT22;6647;53.688;10.746;2022-09-09T00:38:37;15.50;1.00
13164;DHT22;6647;53.688;10.746;2022-09-09T00:39:59;15.50;1.00
13164;DHT22;6647;53.688;10.746;2022-09-09T00:41:29;15.40;1.00
13164;DHT22;6647;53.688;10.746;2022-09-09T00:47:53;15.50;1.00
13164;DHT22;6647;53.688;10.746;2022-09-09T00:50:57;15.50;1.00
13164;DHT22;6647;53.688;10.746;2022-09-09T00:54:07;15.50;1.00
13164;DHT22;6647;53.688;10.746;2022-09-09T00:57:27;15.50;1.00
13164;DHT22;6647;53.688;10.746;2022-09-09T01:00:49;15.40;1.00
13164;DHT22;6647;53.688;10.746;2022-09-09T01:03:58;15.50;1.00
13164;DHT22;6647;53.688;10.746;2022-09-09T01:07:06;15.40;1.00
13164;DHT22;6647;53.688;10.746;2022-09-09T01:08:42;15.50;1.00
13164;DHT22;6647;53.688;10.746;2022-09-09T01:10:25;15.50;1.00
13164;DHT22;6647;53.688;10.746;2022-09-09T01:12:23;15.40;1.00
13164;DHT22;6647;53.688;10.746;2022-09-09T01:13:45;15.40;1.00
13164;DHT22;6647;53.688;10.746;2022-09-09T01:15:14;15.40;1.00
13164;DHT22;6647;53.688;10.746;2022-09-09T01:16:38;15.40;1.00
13164;DHT22;6647;53.688;10.746;2022-09-09T01:18:05;15.40;1.00
13164;DHT22;6647;53.688;10.746;2022-09-09T01:19:54;15.40;1.00
13164;DHT22;6647;53.688;10.746;2022-09-09T01:27:32;15.40;1.00
13164;DHT22;6647;53.688;10.746;2022-09-09T01:28:55;15.40;1.00
13164;DHT22;6647;53.688;10.746;2022-09-09T01:30:17;15.40;1.00
13164;DHT22;6647;53.688;10.746;2022-09-09T01:31:51;15.40;1.00
13164;DHT22;6647;53.688;10.746;2022-09-09T01:33:18;15.40;1.00
13164;DHT22;6647;53.688;10.746;2022-09-09T01:34:40;15.40;1.00
13164;DHT22;6647;53.688;10.746;2022-09-09T01:37:37;15.40;1.00
13164;DHT22;6647;53.688;10.746;2022-09-09T01:38:58;15.40;1.00
13164;DHT22;6647;53.688;10.746;2022-09-09T01:40:19;15.40;1.00
13164;DHT22;6647;53.688;10.746;2022-09-09T01:41:40;15.40;1.00
13164;DHT22;6647;53.688;10.746;2022-09-09T01:43:01;15.40;1.00
13164;DHT22;6647;53.688;10.746;2022-09-09T01:44:23;15.40;1.00
13164;DHT22;6647;53.688;10.746;2022-09-09T01:45:46;15.40;1.00
13164;DHT22;6647;53.688;10.746;2022-09-09T01:47:08;15.40;1.00
13164;DHT22;6647;53.688;10.746;2022-09-09T01:48:30;15.40;1.00
13164;DHT22;6647;53.688;10.746;2022-09-09T01:49:51;15.40;1.00
13164;DHT22;6647;53.688;10.746;2022-09-09T01:51:12;15.40;1.00
13164;DHT22;6647;53.688;10.746;2022-09-09T01:52:36;15.40;1.00
13164;DHT22;6647;53.688;10.746;2022-09-09T01:53:57;15.40;1.00
13164;DHT22;6647;53.688;10.746;2022-09-09T01:55:25;15.40;1.00
13164;DHT22;6647;53.688;10.746;2022-09-09T02:00:10;15.40;1.00
13164;DHT22;6647;53.688;10.746;2022-09-09T02:03:27;15.40;1.00
13164;DHT22;6647;53.688;10.746;2022-09-09T02:05:16;15.40;1.00
13164;DHT22;6647;53.688;10.746;2022-09-09T02:06:38;15.40;1.00
13164;DHT22;6647;53.688;10.746;2022-09-09T02:08:09;15.40;1.00
13164;DHT22;6647;53.688;10.746;2022-09-09T02:09:31;15.40;1.00
13164;DHT22;6647;53.688;10.746;2022-09-09T02:11:17;15.40;1.00
13164;DHT22;6647;53.688;10.746;2022-09-09T02:12:45;15.40;1.00
13164;DHT22;6647;53.688;10.746;2022-09-09T02:14:15;15.40;1.00
13164;DHT22;6647;53.688;10.746;2022-09-09T02:17:14;15.50;1.00
13164;DHT22;6647;53.688;10.746;2022-09-09T02:18:48;15.50;1.00
13164;DHT22;6647;53.688;10.746;2022-09-09T02:20:13;15.50;1.00
13164;DHT22;6647;53.688;10.746;2022-09-09T02:21:35;15.50;1.00
13164;DHT22;6647;53.688;10.746;2022-09-09T02:22:57;15.50;1.00
13164;DHT22;6647;53.688;10.746;2022-09-09T02:24:19;15.50;1.00
13164;DHT22;6647;53.688;10.746;2022-09-09T02:25:41;15.50;1.00
13164;DHT22;6647;53.688;10.746;2022-09-09T02:27:06;15.50;1.00
13164;DHT22;6647;53.688;10.746;2022-09-09T02:28:30;15.50;1.00
13164;DHT22;6647;53.688;10.746;2022-09-09T02:29:53;15.50;1.00
13164;DHT22;6647;53.688;10.746;2022-09-09T02:31:17;15.50;1.00
13164;DHT22;6647;53.688;10.746;2022-09-09T02:32:40;15.50;1.00
13164;DHT22;6647;53.688;10.746;2022-09-09T02:34:03;15.50;1.00
13164;DHT22;6647;53.688;10.746;2022-09-09T02:35:29;15.50;1.00
13164;DHT22;6647;53.688;10.746;2022-09-09T02:36:54;15.50;1.00
13164;DHT22;6647;53.688;10.746;2022-09-09T02:38:16;15.40;1.00
13164;DHT22;6647;53.688;10.746;2022-09-09T02:39:37;15.40;1.00
13164;DHT22;6647;53.688;10.746;2022-09-09T02:40:58;15.40;1.00
13164;DHT22;6647;53.688;10.746;2022-09-09T02:42:19;15.40;1.00
13164;DHT22;6647;53.688;10.746;2022-09-09T02:43:40;15.40;1.00
13164;DHT22;6647;53.688;10.746;2022-09-09T02:45:01;15.40;1.00
13164;DHT22;6647;53.688;10.746;2022-09-09T02:49:42;15.40;1.00
13164;DHT22;6647;53.688;10.746;2022-09-09T02:51:34;15.40;1.00
13164;DHT22;6647;53.688;10.746;2022-09-09T02:53:17;15.40;1.00
13164;DHT22;6647;53.688;10.746;2022-09-09T02:54:38;15.40;1.00
13164;DHT22;6647;53.688;10.746;2022-09-09T02:56:04;15.40;1.00
13164;DHT22;6647;53.688;10.746;2022-09-09T02:57:28;15.40;1.00
13164;DHT22;6647;53.688;10.746;2022-09-09T02:58:50;15.40;1.00
13164;DHT22;6647;53.688;10.746;2022-09-09T03:00:12;15.30;1.00
13164;DHT22;6647;53.688;10.746;2022-09-09T03:01:33;15.40;1.00
13164;DHT22;6647;53.688;10.746;2022-09-09T03:02:56;15.40;1.00
13164;DHT22;6647;53.688;10.746;2022-09-09T03:04:17;15.40;1.00
13164;DHT22;6647;53.688;10.746;2022-09-09T03:05:38;15.30;1.00
13164;DHT22;6647;53.688;10.746;2022-09-09T03:07:00;15.30;1.00
13164;DHT22;6647;53.688;10.746;2022-09-09T03:08:21;15.30;1.00
13164;DHT22;6647;53.688;10.746;2022-09-09T03:09:42;15.30;1.00
13164;DHT22;6647;53.688;10.746;2022-09-09T03:11:03;15.40;1.00
13164;DHT22;6647;53.688;10.746;2022-09-09T03:12:24;15.40;1.00
13164;DHT22;6647;53.688;10.746;2022-09-09T03:13:45;15.40;1.00
13164;DHT22;6647;53.688;10.746;2022-09-09T03:15:06;15.40;1.00
13164;DHT22;6647;53.688;10.746;2022-09-09T03:16:28;15.40;1.00
13164;DHT22;6647;53.688;10.746;2022-09-09T03:17:49;15.40;1.00
13164;DHT22;6647;53.688;10.746;2022-09-09T03:19:09;15.40;1.00
13164;DHT22;6647;53.688;10.746;2022-09-09T03:20:31;15.40;1.00
13164;DHT22;6647;53.688;10.746;2022-09-09T03:21:52;15.40;1.00
13164;DHT22;6647;53.688;10.746;2022-09-09T03:23:13;15.40;1.00
13164;DHT22;6647;53.688;10.746;2022-09-09T03:24:34;15.40;1.00
13164;DHT22;6647;53.688;10.746;2022-09-09T03:25:55;15.40;1.00
13164;DHT22;6647;53.688;10.746;2022-09-09T03:27:18;15.40;1.00
13164;DHT22;6647;53.688;10.746;2022-09-09T03:28:40;15.40;1.00
13164;DHT22;6647;53.688;10.746;2022-09-09T03:30:01;15.40;1.00
13164;DHT22;6647;53.688;10.746;2022-09-09T03:31:24;15.40;1.00
13164;DHT22;6647;53.688;10.746;2022-09-09T03:32:46;15.40;1.00
13164;DHT22;6647;53.688;10.746;2022-09-09T03:34:07;15.40;1.00
13164;DHT22;6647;53.688;10.746;2022-09-09T03:35:28;15.40;1.00
13164;DHT22;6647;53.688;10.746;2022-09-09T03:36:50;15.40;1.00
13164;DHT22;6647;53.688;10.746;2022-09-09T03:38:11;15.40;1.00
13164;DHT22;6647;53.688;10.746;2022-09-09T03:39:32;15.40;1.00
13164;DHT22;6647;53.688;10.746;2022-09-09T03:40:54;15.40;1.00
13164;DHT22;6647;53.688;10.746;2022-09-09T03:42:16;15.40;1.00
13164;DHT22;6647;53.688;10.746;2022-09-09T03:43:39;15.40;1.00
13164;DHT22;6647;53.688;10.746;2022-09-09T03:45:00;15.40;1.00
13164;DHT22;6647;53.688;10.746;2022-09-09T03:46:23;15.40;1.00
13164;DHT22;6647;53.688;10.746;2022-09-09T03:47:44;15.40;1.00
13164;DHT22;6647;53.688;10.746;2022-09-09T03:49:05;15.40;1.00
13164;DHT22;6647;53.688;10.746;2022-09-09T03:50:26;15.40;1.00
13164;DHT22;6647;53.688;10.746;2022-09-09T03:51:47;15.40;1.00
13164;DHT22;6647;53.688;10.746;2022-09-09T03:53:07;15.40;1.00
13164;DHT22;6647;53.688;10.746;2022-09-09T03:54:28;15.40;1.00
13164;DHT22;6647;53.688;10.746;2022-09-09T03:55:51;15.40;1.00
13164;DHT22;6647;53.688;10.746;2022-09-09T03:57:15;15.40;1.00
13164;DHT22;6647;53.688;10.746;2022-09-09T03:58:37;15.40;1.00
13164;DHT22;6647;53.688;10.746;2022-09-09T03:59:58;15.40;1.00
13164;DHT22;6647;53.688;10.746;2022-09-09T04:01:21;15.40;1.00
13164;DHT22;6647;53.688;10.746;2022-09-09T04:02:42;15.40;1.00
13164;DHT22;6647;53.688;10.746;2022-09-09T04:04:04;15.40;1.00
13164;DHT22;6647;53.688;10.746;2022-09-09T04:05:25;15.40;1.00
13164;DHT22;6647;53.688;10.746;2022-09-09T04:06:46;15.40;1.00
13164;DHT22;6647;53.688;10.746;2022-09-09T04:08:09;15.40;1.00
13164;DHT22;6647;53.688;10.746;2022-09-09T04:09:29;15.40;1.00
13164;DHT22;6647;53.688;10.746;2022-09-09T04:10:51;15.40;1.00
13164;DHT22;6647;53.688;10.746;2022-09-09T04:12:12;15.40;1.00
13164;DHT22;6647;53.688;10.746;2022-09-09T04:13:34;15.40;1.00
13164;DHT22;6647;53.688;10.746;2022-09-09T04:14:56;15.40;1.00
13164;DHT22;6647;53.688;10.746;2022-09-09T04:16:17;15.40;1.00
13164;DHT22;6647;53.688;10.746;2022-09-09T04:17:38;15.40;1.00
13164;DHT22;6647;53.688;10.746;2022-09-09T04:18:59;15.40;1.00
13164;DHT22;6647;53.688;10.746;2022-09-09T04:20:20;15.40;1.00
13164;DHT22;6647;53.688;10.746;2022-09-09T04:21:42;15.40;1.00
13164;DHT22;6647;53.688;10.746;2022-09-09T04:23:03;15.40;1.00
13164;DHT22;6647;53.688;10.746;2022-09-09T04:24:25;15.40;1.00
13164;DHT22;6647;53.688;10.746;2022-09-09T04:25:50;15.40;1.00
13164;DHT22;6647;53.688;10.746;2022-09-09T04:27:11;15.40;1.00
13164;DHT22;6647;53.688;10.746;2022-09-09T04:28:34;15.40;1.00
13164;DHT22;6647;53.688;10.746;2022-09-09T04:29:56;15.40;1.00
13164;DHT22;6647;53.688;10.746;2022-09-09T04:31:20;15.40;1.00
13164;DHT22;6647;53.688;10.746;2022-09-09T04:32:43;15.40;1.00
13164;DHT22;6647;53.688;10.746;2022-09-09T04:34:04;15.40;1.00
13164;DHT22;6647;53.688;10.746;2022-09-09T04:35:25;15.40;1.00
13164;DHT22;6647;53.688;10.746;2022-09-09T04:36:47;15.40;1.00
13164;DHT22;6647;53.688;10.746;2022-09-09T04:38:08;15.30;1.00
13164;DHT22;6647;53.688;10.746;2022-09-09T04:39:29;15.30;1.00
13164;DHT22;6647;53.688;10.746;2022-09-09T04:40:51;15.30;1.00
13164;DHT22;6647;53.688;10.746;2022-09-09T04:42:12;15.30;1.00
13164;DHT22;6647;53.688;10.746;2022-09-09T04:43:34;15.30;1.00
13164;DHT22;6647;53.688;10.746;2022-09-09T04:44:55;15.30;1.00
13164;DHT22;6647;53.688;10.746;2022-09-09T04:46:16;15.30;1.00
13164;DHT22;6647;53.688;10.746;2022-09-09T04:47:39;15.30;1.00
13164;DHT22;6647;53.688;10.746;2022-09-09T04:49:00;15.30;1.00
13164;DHT22;6647;53.688;10.746;2022-09-09T04:50:21;15.30;1.00
13164;DHT22;6647;53.688;10.746;2022-09-09T04:51:42;15.30;1.00
13164;DHT22;6647;53.688;10.746;2022-09-09T04:53:04;15.20;1.00
13164;DHT22;6647;53.688;10.746;2022-09-09T04:54:25;15.20;1.00
13164;DHT22;6647;53.688;10.746;2022-09-09T04:55:46;15.20;1.00
13164;DHT22;6647;53.688;10.746;2022-09-09T04:57:07;15.20;1.00
13164;DHT22;6647;53.688;10.746;2022-09-09T04:58:28;15.20;1.00
13164;DHT22;6647;53.688;10.746;2022-09-09T04:59:49;15.20;1.00
13164;DHT22;6647;53.688;10.746;2022-09-09T05:01:13;15.20;1.00
13164;DHT22;6647;53.688;10.746;2022-09-09T05:02:37;15.20;1.00
13164;DHT22;6647;53.688;10.746;2022-09-09T05:03:59;15.20;1.00
13164;DHT22;6647;53.688;10.746;2022-09-09T05:05:20;15.20;1.00
13164;DHT22;6647;53.688;10.746;2022-09-09T05:06:41;15.20;1.00
13164;DHT22;6647;53.688;10.746;2022-09-09T05:08:04;15.20;1.00
13164;DHT22;6647;53.688;10.746;2022-09-09T05:09:25;15.20;1.00
13164;DHT22;6647;53.688;10.746;2022-09-09T05:10:46;15.20;1.00
13164;DHT22;6647;53.688;10.746;2022-09-09T05:12:06;15.20;1.00
13164;DHT22;6647;53.688;10.746;2022-09-09T05:13:28;15.20;1.00
13164;DHT22;6647;53.688;10.746;2022-09-09T05:14:52;15.20;1.00
13164;DHT22;6647;53.688;10.746;2022-09-09T05:16:14;15.20;1.00
13164;DHT22;6647;53.688;10.746;2022-09-09T05:17:35;15.20;1.00
13164;DHT22;6647;53.688;10.746;2022-09-09T05:18:56;15.20;1.00
13164;DHT22;6647;53.688;10.746;2022-09-09T05:20:18;15.20;1.00
13164;DHT22;6647;53.688;10.746;2022-09-09T05:21:39;15.20;1.00
13164;DHT22;6647;53.688;10.746;2022-09-09T05:23:00;15.20;1.00
13164;DHT22;6647;53.688;10.746;2022-09-09T05:24:20;15.20;1.00
13164;DHT22;6647;53.688;10.746;2022-09-09T05:25:43;15.20;1.00
13164;DHT22;6647;53.688;10.746;2022-09-09T05:27:04;15.20;1.00
13164;DHT22;6647;53.688;10.746;2022-09-09T05:28:27;15.20;1.00
13164;DHT22;6647;53.688;10.746;2022-09-09T05:29:48;15.20;1.00
13164;DHT22;6647;53.688;10.746;2022-09-09T05:31:10;15.20;1.00
13164;DHT22;6647;53.688;10.746;2022-09-09T05:32:34;15.20;1.00
13164;DHT22;6647;53.688;10.746;2022-09-09T05:33:55;15.20;1.00
13164;DHT22;6647;53.688;10.746;2022-09-09T05:35:16;15.20;1.00
13164;DHT22;6647;53.688;10.746;2022-09-09T05:36:39;15.20;1.00
13164;DHT22;6647;53.688;10.746;2022-09-09T05:38:00;15.20;1.00
13164;DHT22;6647;53.688;10.746;2022-09-09T05:39:21;15.20;1.00
13164;DHT22;6647;53.688;10.746;2022-09-09T05:40:47;15.10;1.00
13164;DHT22;6647;53.688;10.746;2022-09-09T05:42:08;15.10;1.00
13164;DHT22;6647;53.688;10.746;2022-09-09T05:43:29;15.10;1.00
13164;DHT22;6647;53.688;10.746;2022-09-09T05:44:50;15.10;1.00
13164;DHT22;6647;53.688;10.746;2022-09-09T05:46:19;15.10;1.00
13164;DHT22;6647;53.688;10.746;2022-09-09T05:47:40;15.10;1.00
13164;DHT22;6647;53.688;10.746;2022-09-09T05:49:02;15.10;1.00
13164;DHT22;6647;53.688;10.746;2022-09-09T05:50:23;15.10;1.00
13164;DHT22;6647;53.688;10.746;2022-09-09T05:51:44;15.10;1.00
13164;DHT22;6647;53.688;10.746;2022-09-09T05:53:05;15.10;1.00
13164;DHT22;6647;53.688;10.746;2022-09-09T05:54:25;15.10;1.00
13164;DHT22;6647;53.688;10.746;2022-09-09T05:55:46;15.10;1.00
13164;DHT22;6647;53.688;10.746;2022-09-09T05:57:08;15.10;1.00
13164;DHT22;6647;53.688;10.746;2022-09-09T05:58:31;15.10;1.00
13164;DHT22;6647;53.688;10.746;2022-09-09T05:59:51;15.10;1.00
13164;DHT22;6647;53.688;10.746;2022-09-09T06:01:14;15.10;1.00
13164;DHT22;6647;53.688;10.746;2022-09-09T06:02:36;15.10;1.00
13164;DHT22;6647;53.688;10.746;2022-09-09T06:03:58;15.10;1.00
13164;DHT22;6647;53.688;10.746;2022-09-09T06:05:19;15.10;1.00
13164;DHT22;6647;53.688;10.746;2022-09-09T06:06:40;15.10;1.00
13164;DHT22;6647;53.688;10.746;2022-09-09T06:08:02;15.10;1.00
13164;DHT22;6647;53.688;10.746;2022-09-09T06:09:23;15.10;1.00
13164;DHT22;6647;53.688;10.746;2022-09-09T06:10:44;15.10;1.00
13164;DHT22;6647;53.688;10.746;2022-09-09T06:12:05;15.00;1.00
13164;DHT22;6647;53.688;10.746;2022-09-09T06:13:26;15.00;1.00
13164;DHT22;6647;53.688;10.746;2022-09-09T06:14:47;15.00;1.00
13164;DHT22;6647;53.688;10.746;2022-09-09T06:16:09;15.00;1.00
13164;DHT22;6647;53.688;10.746;2022-09-09T06:17:31;15.10;1.00
13164;DHT22;6647;53.688;10.746;2022-09-09T06:18:54;15.10;1.00
13164;DHT22;6647;53.688;10.746;2022-09-09T06:20:15;15.10;1.00
13164;DHT22;6647;53.688;10.746;2022-09-09T06:21:37;15.10;1.00
13164;DHT22;6647;53.688;10.746;2022-09-09T06:22:58;15.10;1.00
13164;DHT22;6647;53.688;10.746;2022-09-09T06:24:18;15.10;1.00
13164;DHT22;6647;53.688;10.746;2022-09-09T06:25:40;15.10;1.00
13164;DHT22;6647;53.688;10.746;2022-09-09T06:27:01;15.10;1.00
13164;DHT22;6647;53.688;10.746;2022-09-09T06:28:22;15.10;1.00
13164;DHT22;6647;53.688;10.746;2022-09-09T06:29:43;15.10;1.00
13164;DHT22;6647;53.688;10.746;2022-09-09T06:31:06;15.10;1.00
13164;DHT22;6647;53.688;10.746;2022-09-09T06:32:28;15.10;1.00
13164;DHT22;6647;53.688;10.746;2022-09-09T06:33:52;15.00;1.00
13164;DHT22;6647;53.688;10.746;2022-09-09T06:35:13;15.00;1.00
13164;DHT22;6647;53.688;10.746;2022-09-09T06:36:37;15.00;1.00
13164;DHT22;6647;53.688;10.746;2022-09-09T06:37:58;15.00;1.00
13164;DHT22;6647;53.688;10.746;2022-09-09T06:39:22;15.00;1.00
13164;DHT22;6647;53.688;10.746;2022-09-09T06:40:43;15.10;1.00
13164;DHT22;6647;53.688;10.746;2022-09-09T06:42:11;15.10;1.00
13164;DHT22;6647;53.688;10.746;2022-09-09T06:43:32;15.10;1.00
13164;DHT22;6647;53.688;10.746;2022-09-09T06:44:53;15.10;1.00
13164;DHT22;6647;53.688;10.746;2022-09-09T06:47:36;15.10;1.00
13164;DHT22;6647;53.688;10.746;2022-09-09T06:48:58;15.10;1.00
13164;DHT22;6647;53.688;10.746;2022-09-09T06:50:19;15.20;1.00
13164;DHT22;6647;53.688;10.746;2022-09-09T06:51:41;15.20;1.00
13164;DHT22;6647;53.688;10.746;2022-09-09T06:53:03;15.20;1.00
13164;DHT22;6647;53.688;10.746;2022-09-09T06:54:24;15.20;1.00
13164;DHT22;6647;53.688;10.746;2022-09-09T06:55:45;15.20;1.00
13164;DHT22;6647;53.688;10.746;2022-09-09T06:57:07;15.20;1.00
13164;DHT22;6647;53.688;10.746;2022-09-09T06:58:28;15.20;1.00
13164;DHT22;6647;53.688;10.746;2022-09-09T06:59:49;15.20;1.00
13164;DHT22;6647;53.688;10.746;2022-09-09T07:01:18;15.20;1.00
13164;DHT22;6647;53.688;10.746;2022-09-09T07:02:39;15.20;1.00
13164;DHT22;6647;53.688;10.746;2022-09-09T07:04:02;15.20;1.00
13164;DHT22;6647;53.688;10.746;2022-09-09T07:05:24;15.20;1.00
13164;DHT22;6647;53.688;10.746;2022-09-09T07:06:46;15.30;1.00
13164;DHT22;6647;53.688;10.746;2022-09-09T07:08:07;15.30;1.00
13164;DHT22;6647;53.688;10.746;2022-09-09T07:09:29;15.30;1.00
13164;DHT22;6647;53.688;10.746;2022-09-09T07:10:51;15.30;1.00
13164;DHT22;6647;53.688;10.746;2022-09-09T07:12:14;15.30;1.00
13164;DHT22;6647;53.688;10.746;2022-09-09T07:13:35;15.30;1.00
13164;DHT22;6647;53.688;10.746;2022-09-09T07:14:56;15.40;1.00
13164;DHT22;6647;53.688;10.746;2022-09-09T07:16:18;15.40;1.00
13164;DHT22;6647;53.688;10.746;2022-09-09T07:17:39;15.40;1.00
13164;DHT22;6647;53.688;10.746;2022-09-09T07:19:00;15.40;1.00
13164;DHT22;6647;53.688;10.746;2022-09-09T07:20:24;15.40;1.00
13164;DHT22;6647;53.688;10.746;2022-09-09T07:21:44;15.40;1.00
13164;DHT22;6647;53.688;10.746;2022-09-09T07:23:05;15.50;1.00
13164;DHT22;6647;53.688;10.746;2022-09-09T07:24:26;15.50;1.00
13164;DHT22;6647;53.688;10.746;2022-09-09T07:25:51;15.50;1.00
13164;DHT22;6647;53.688;10.746;2022-09-09T07:27:13;15.50;1.00
13164;DHT22;6647;53.688;10.746;2022-09-09T07:28:34;15.60;1.00
13164;DHT22;6647;53.688;10.746;2022-09-09T07:29:55;15.60;1.00
13164;DHT22;6647;53.688;10.746;2022-09-09T07:31:30;15.60;1.00
13164;DHT22;6647;53.688;10.746;2022-09-09T07:32:52;15.60;1.00
13164;DHT22;6647;53.688;10.746;2022-09-09T07:34:12;15.70;1.00
13164;DHT22;6647;53.688;10.746;2022-09-09T07:35:33;15.70;1.00
13164;DHT22;6647;53.688;10.746;2022-09-09T07:36:54;15.70;1.00
13164;DHT22;6647;53.688;10.746;2022-09-09T07:38:20;15.70;1.00
13164;DHT22;6647;53.688;10.746;2022-09-09T07:39:42;15.70;1.00
13164;DHT22;6647;53.688;10.746;2022-09-09T07:41:14;15.70;1.00
13164;DHT22;6647;53.688;10.746;2022-09-09T07:42:35;15.70;1.00
13164;DHT22;6647;53.688;10.746;2022-09-09T07:43:57;15.80;1.00
13164;DHT22;6647;53.688;10.746;2022-09-09T07:45:19;15.70;1.00
13164;DHT22;6647;53.688;10.746;2022-09-09T07:46:40;15.70;1.00
13164;DHT22;6647;53.688;10.746;2022-09-09T07:48:02;15.80;1.00
13164;DHT22;6647;53.688;10.746;2022-09-09T07:49:23;15.80;1.00
13164;DHT22;6647;53.688;10.746;2022-09-09T07:50:44;15.80;1.00
13164;DHT22;6647;53.688;10.746;2022-09-09T07:52:05;15.80;1.00
13164;DHT22;6647;53.688;10.746;2022-09-09T07:53:26;15.80;1.00
13164;DHT22;6647;53.688;10.746;2022-09-09T07:54:47;15.80;1.00
13164;DHT22;6647;53.688;10.746;2022-09-09T07:56:11;15.80;1.00
13164;DHT22;6647;53.688;10.746;2022-09-09T07:57:32;15.80;1.00
13164;DHT22;6647;53.688;10.746;2022-09-09T07:58:54;15.80;1.00
13164;DHT22;6647;53.688;10.746;2022-09-09T08:00:15;15.90;1.00
13164;DHT22;6647;53.688;10.746;2022-09-09T08:01:39;15.90;1.00
13164;DHT22;6647;53.688;10.746;2022-09-09T08:03:00;15.90;1.00
13164;DHT22;6647;53.688;10.746;2022-09-09T08:04:24;15.90;1.00
13164;DHT22;6647;53.688;10.746;2022-09-09T08:05:45;15.90;1.00
13164;DHT22;6647;53.688;10.746;2022-09-09T08:07:06;15.90;1.00
13164;DHT22;6647;53.688;10.746;2022-09-09T08:08:28;16.00;1.00
13164;DHT22;6647;53.688;10.746;2022-09-09T08:09:49;16.00;1.00
13164;DHT22;6647;53.688;10.746;2022-09-09T08:11:15;16.00;1.00
13164;DHT22;6647;53.688;10.746;2022-09-09T08:12:36;16.00;1.00
13164;DHT22;6647;53.688;10.746;2022-09-09T08:13:56;16.10;1.00
13164;DHT22;6647;53.688;10.746;2022-09-09T08:15:17;16.10;1.00
13164;DHT22;6647;53.688;10.746;2022-09-09T08:16:41;16.10;1.00
13164;DHT22;6647;53.688;10.746;2022-09-09T08:18:02;16.10;1.00
13164;DHT22;6647;53.688;10.746;2022-09-09T08:19:25;16.20;1.00
13164;DHT22;6647;53.688;10.746;2022-09-09T08:20:45;16.20;1.00
13164;DHT22;6647;53.688;10.746;2022-09-09T08:22:06;16.20;1.00
13164;DHT22;6647;53.688;10.746;2022-09-09T08:23:28;16.20;1.00
13164;DHT22;6647;53.688;10.746;2022-09-09T08:24:49;16.20;1.00
13164;DHT22;6647;53.688;10.746;2022-09-09T08:26:15;16.20;1.00
13164;DHT22;6647;53.688;10.746;2022-09-09T08:27:36;16.20;1.00
13164;DHT22;6647;53.688;10.746;2022-09-09T08:28:59;16.30;1.00
13164;DHT22;6647;53.688;10.746;2022-09-09T08:30:20;16.30;1.00
13164;DHT22;6647;53.688;10.746;2022-09-09T08:31:56;16.30;1.00
13164;DHT22;6647;53.688;10.746;2022-09-09T08:33:17;16.30;1.00
13164;DHT22;6647;53.688;10.746;2022-09-09T08:34:38;16.30;1.00
13164;DHT22;6647;53.688;10.746;2022-09-09T08:35:59;16.30;1.00
13164;DHT22;6647;53.688;10.746;2022-09-09T08:37:20;16.30;1.00
13164;DHT22;6647;53.688;10.746;2022-09-09T08:38:42;16.30;1.00
13164;DHT22;6647;53.688;10.746;2022-09-09T08:40:03;16.40;1.00
13164;DHT22;6647;53.688;10.746;2022-09-09T08:42:58;16.40;1.00
13164;DHT22;6647;53.688;10.746;2022-09-09T08:46:24;16.40;1.00
13164;DHT22;6647;53.688;10.746;2022-09-09T08:48:01;16.40;1.00
13164;DHT22;6647;53.688;10.746;2022-09-09T08:51:14;16.50;1.00
13164;DHT22;6647;53.688;10.746;2022-09-09T08:54:33;16.50;1.00
13164;DHT22;6647;53.688;10.746;2022-09-09T08:56:01;16.50;1.00
13164;DHT22;6647;53.688;10.746;2022-09-09T08:57:27;16.50;1.00
13164;DHT22;6647;53.688;10.746;2022-09-09T08:58:53;16.50;1.00
13164;DHT22;6647;53.688;10.746;2022-09-09T09:00:14;16.60;1.00
13164;DHT22;6647;53.688;10.746;2022-09-09T09:01:56;16.60;1.00
13164;DHT22;6647;53.688;10.746;2022-09-09T09:05:23;16.60;1.00
13164;DHT22;6647;53.688;10.746;2022-09-09T09:07:09;16.70;1.00
13164;DHT22;6647;53.688;10.746;2022-09-09T09:08:51;16.70;1.00
13164;DHT22;6647;53.688;10.746;2022-09-09T09:10:29;16.70;1.00
13164;DHT22;6647;53.688;10.746;2022-09-09T09:11:57;16.70;1.00
13164;DHT22;6647;53.688;10.746;2022-09-09T09:15:25;16.80;1.00
13164;DHT22;6647;53.688;10.746;2022-09-09T09:16:57;16.80;1.00
13164;DHT22;6647;53.688;10.746;2022-09-09T09:18:18;16.80;1.00
13164;DHT22;6647;53.688;10.746;2022-09-09T09:19:40;16.90;1.00
13164;DHT22;6647;53.688;10.746;2022-09-09T09:21:19;16.90;1.00
13164;DHT22;6647;53.688;10.746;2022-09-09T09:22:52;16.90;1.00
13164;DHT22;6647;53.688;10.746;2022-09-09T09:24:26;16.90;1.00
13164;DHT22;6647;53.688;10.746;2022-09-09T09:25:48;17.00;1.00
13164;DHT22;6647;53.688;10.746;2022-09-09T09:27:31;17.00;1.00
13164;DHT22;6647;53.688;10.746;2022-09-09T09:28:55;17.00;1.00
13164;DHT22;6647;53.688;10.746;2022-09-09T09:30:20;17.10;1.00
13164;DHT22;6647;53.688;10.746;2022-09-09T09:32:02;17.10;1.00
13164;DHT22;6647;53.688;10.746;2022-09-09T09:33:30;17.10;1.00
13164;DHT22;6647;53.688;10.746;2022-09-09T09:34:56;17.10;1.00
13164;DHT22;6647;53.688;10.746;2022-09-09T09:36:32;17.10;1.00
13164;DHT22;6647;53.688;10.746;2022-09-09T09:37:54;17.10;1.00
13164;DHT22;6647;53.688;10.746;2022-09-09T09:39:30;17.10;1.00
13164;DHT22;6647;53.688;10.746;2022-09-09T09:40:53;17.20;1.00
13164;DHT22;6647;53.688;10.746;2022-09-09T09:42:19;17.20;1.00
13164;DHT22;6647;53.688;10.746;2022-09-09T09:43:41;17.20;1.00
13164;DHT22;6647;53.688;10.746;2022-09-09T09:45:14;17.20;1.00
13164;DHT22;6647;53.688;10.746;2022-09-09T09:46:36;17.20;1.00
13164;DHT22;6647;53.688;10.746;2022-09-09T09:48:03;17.30;1.00
13164;DHT22;6647;53.688;10.746;2022-09-09T09:49:24;17.30;1.00